sensor_id;sensor_type;location;lat;lon;timestamp;P1;durP1;ratioP1;P2;durP2;ratioP2
40154;SDS011;25875;48.202;16.334;2023-12-28T00:02:00;13.07;;;10.05;;
40154;SDS011;25875;48.202;16.334;2023-12-28T00:04:28;13.88;;;11.52;;
40154;SDS011;25875;48.202;16.334;2023-12-28T00:06:54;12.48;;;10.80;;
40154;SDS011;25875;48.202;16.334;2023-12-28T00:09:21;15.30;;;12.43;;
40154;SDS011;25875;48.202;16.334;2023-12-28T00:11:48;15.27;;;12.73;;
40154;SDS011;25875;48.202;16.334;2023-12-28T00:14:15;15.52;;;11.70;;
40154;SDS011;25875;48.202;16.334;2023-12-28T00:16:41;14.93;;;12.10;;
40154;SDS011;25875;48.202;16.334;2023-12-28T00:19:08;20.08;;;14.73;;
40154;SDS011;25875;48.202;16.334;2023-12-28T00:21:36;20.30;;;14.82;;
40154;SDS011;25875;48.202;16.334;2023-12-28T00:24:03;18.38;;;14.55;;
40154;SDS011;25875;48.202;16.334;2023-12-28T00:26:29;21.60;;;16.25;;
40154;SDS011;25875;48.202;16.334;2023-12-28T00:28:56;20.15;;;14.93;;
40154;SDS011;25875;48.202;16.334;2023-12-28T00:31:23;17.98;;;14.65;;
40154;SDS011;25875;48.202;16.334;2023-12-28T00:33:49;18.73;;;13.95;;
40154;SDS011;25875;48.202;16.334;2023-12-28T00:36:16;14.90;;;12.70;;
40154;SDS011;25875;48.202;16.334;2023-12-28T00:38:44;17.33;;;13.05;;
40154;SDS011;25875;48.202;16.334;2023-12-28T00:41:11;15.75;;;12.98;;
40154;SDS011;25875;48.202;16.334;2023-12-28T00:43:37;16.75;;;12.27;;
40154;SDS011;25875;48.202;16.334;2023-12-28T00:46:04;15.13;;;12.10;;
40154;SDS011;25875;48.202;16.334;2023-12-28T00:48:30;13.98;;;12.15;;
40154;SDS011;25875;48.202;16.334;2023-12-28T00:50:57;12.35;;;10.23;;
40154;SDS011;25875;48.202;16.334;2023-12-28T00:53:25;13.50;;;11.00;;
40154;SDS011;25875;48.202;16.334;2023-12-28T00:55:53;14.27;;;12.73;;
40154;SDS011;25875;48.202;16.334;2023-12-28T00:58:20;15.10;;;12.27;;
40154;SDS011;25875;48.202;16.334;2023-12-28T01:00:46;13.93;;;11.02;;
40154;SDS011;25875;48.202;16.334;2023-12-28T01:03:13;15.07;;;10.98;;
40154;SDS011;25875;48.202;16.334;2023-12-28T01:05:39;15.50;;;12.45;;
40154;SDS011;25875;48.202;16.334;2023-12-28T01:08:06;17.63;;;12.50;;
40154;SDS011;25875;48.202;16.334;2023-12-28T01:10:33;16.30;;;13.02;;
40154;SDS011;25875;48.202;16.334;2023-12-28T01:13:01;17.15;;;11.63;;
40154;SDS011;25875;48.202;16.334;2023-12-28T01:15:28;15.70;;;12.70;;
40154;SDS011;25875;48.202;16.334;2023-12-28T01:17:54;15.30;;;11.93;;
40154;SDS011;25875;48.202;16.334;2023-12-28T01:20:21;15.95;;;12.25;;
40154;SDS011;25875;48.202;16.334;2023-12-28T01:22:48;14.65;;;11.75;;
40154;SDS011;25875;48.202;16.334;2023-12-28T01:25:15;16.60;;;13.57;;
40154;SDS011;25875;48.202;16.334;2023-12-28T01:27:41;15.82;;;12.45;;
40154;SDS011;25875;48.202;16.334;2023-12-28T01:30:10;17.27;;;14.18;;
40154;SDS011;25875;48.202;16.334;2023-12-28T01:32:36;16.77;;;13.60;;
40154;SDS011;25875;48.202;16.334;2023-12-28T01:35:03;13.75;;;11.77;;
40154;SDS011;25875;48.202;16.334;2023-12-28T01:37:30;14.95;;;11.35;;
40154;SDS011;25875;48.202;16.334;2023-12-28T01:39:58;14.93;;;12.35;;
40154;SDS011;25875;48.202;16.334;2023-12-28T01:42:25;16.02;;;12.77;;
40154;SDS011;25875;48.202;16.334;2023-12-28T01:44:52;14.93;;;12.68;;
40154;SDS011;25875;48.202;16.334;2023-12-28T01:47:20;15.70;;;12.90;;
40154;SDS011;25875;48.202;16.334;2023-12-28T01:49:46;18.40;;;14.82;;
40154;SDS011;25875;48.202;16.334;2023-12-28T01:52:13;18.17;;;13.50;;
40154;SDS011;25875;48.202;16.334;2023-12-28T01:54:39;17.02;;;13.32;;
40154;SDS011;25875;48.202;16.334;2023-12-28T01:57:06;20.80;;;14.40;;
40154;SDS011;25875;48.202;16.334;2023-12-28T01:59:33;18.75;;;13.95;;
40154;SDS011;25875;48.202;16.334;2023-12-28T02:02:00;17.33;;;13.77;;
40154;SDS011;25875;48.202;16.334;2023-12-28T02:04:29;19.10;;;14.93;;
40154;SDS011;25875;48.202;16.334;2023-12-28T02:06:56;17.90;;;14.23;;
40154;SDS011;25875;48.202;16.334;2023-12-28T02:09:25;17.55;;;14.63;;
40154;SDS011;25875;48.202;16.334;2023-12-28T02:11:52;19.58;;;15.27;;
40154;SDS011;25875;48.202;16.334;2023-12-28T02:14:20;21.05;;;14.77;;
40154;SDS011;25875;48.202;16.334;2023-12-28T02:16:50;17.65;;;13.63;;
40154;SDS011;25875;48.202;16.334;2023-12-28T02:19:25;16.80;;;13.10;;
40154;SDS011;25875;48.202;16.334;2023-12-28T02:22:07;17.65;;;14.30;;
40154;SDS011;25875;48.202;16.334;2023-12-28T02:27:29;18.90;;;12.52;;
40154;SDS011;25875;48.202;16.334;2023-12-28T02:29:56;18.70;;;14.32;;
40154;SDS011;25875;48.202;16.334;2023-12-28T02:32:24;18.05;;;15.02;;
40154;SDS011;25875;48.202;16.334;2023-12-28T02:35:00;20.15;;;14.02;;
40154;SDS011;25875;48.202;16.334;2023-12-28T02:37:33;17.33;;;15.07;;
40154;SDS011;25875;48.202;16.334;2023-12-28T02:40:01;19.45;;;14.85;;
40154;SDS011;25875;48.202;16.334;2023-12-28T02:42:29;22.83;;;16.40;;
40154;SDS011;25875;48.202;16.334;2023-12-28T02:44:56;24.70;;;16.95;;
40154;SDS011;25875;48.202;16.334;2023-12-28T02:47:23;20.95;;;16.63;;
40154;SDS011;25875;48.202;16.334;2023-12-28T02:49:50;20.60;;;15.55;;
40154;SDS011;25875;48.202;16.334;2023-12-28T02:52:16;19.98;;;15.65;;
40154;SDS011;25875;48.202;16.334;2023-12-28T02:54:43;18.33;;;14.90;;
40154;SDS011;25875;48.202;16.334;2023-12-28T02:57:09;20.38;;;16.13;;
40154;SDS011;25875;48.202;16.334;2023-12-28T02:59:37;22.60;;;16.55;;
40154;SDS011;25875;48.202;16.334;2023-12-28T03:02:05;21.10;;;16.60;;
40154;SDS011;25875;48.202;16.334;2023-12-28T03:04:31;19.98;;;16.90;;
40154;SDS011;25875;48.202;16.334;2023-12-28T03:06:58;28.38;;;19.02;;
40154;SDS011;25875;48.202;16.334;2023-12-28T03:09:25;24.90;;;17.77;;
40154;SDS011;25875;48.202;16.334;2023-12-28T03:11:51;22.23;;;16.70;;
40154;SDS011;25875;48.202;16.334;2023-12-28T03:14:18;21.65;;;16.33;;
40154;SDS011;25875;48.202;16.334;2023-12-28T03:16:47;22.10;;;16.10;;
40154;SDS011;25875;48.202;16.334;2023-12-28T03:19:14;20.27;;;15.75;;
40154;SDS011;25875;48.202;16.334;2023-12-28T03:21:40;19.27;;;15.43;;
40154;SDS011;25875;48.202;16.334;2023-12-28T03:24:07;22.35;;;15.82;;
40154;SDS011;25875;48.202;16.334;2023-12-28T03:26:37;24.15;;;17.10;;
40154;SDS011;25875;48.202;16.334;2023-12-28T03:29:05;19.10;;;15.15;;
40154;SDS011;25875;48.202;16.334;2023-12-28T03:31:31;24.48;;;17.95;;
40154;SDS011;25875;48.202;16.334;2023-12-28T03:33:59;21.25;;;16.33;;
40154;SDS011;25875;48.202;16.334;2023-12-28T03:36:26;20.55;;;15.82;;
40154;SDS011;25875;48.202;16.334;2023-12-28T03:38:53;18.77;;;15.65;;
40154;SDS011;25875;48.202;16.334;2023-12-28T03:41:20;22.83;;;17.02;;
40154;SDS011;25875;48.202;16.334;2023-12-28T03:43:46;23.52;;;17.33;;
40154;SDS011;25875;48.202;16.334;2023-12-28T03:46:14;22.33;;;17.27;;
40154;SDS011;25875;48.202;16.334;2023-12-28T03:48:40;21.65;;;17.85;;
40154;SDS011;25875;48.202;16.334;2023-12-28T03:51:08;22.05;;;16.42;;
40154;SDS011;25875;48.202;16.334;2023-12-28T03:53:40;23.73;;;17.13;;
40154;SDS011;25875;48.202;16.334;2023-12-28T03:56:06;24.27;;;16.73;;
40154;SDS011;25875;48.202;16.334;2023-12-28T03:58:33;28.88;;;19.45;;
40154;SDS011;25875;48.202;16.334;2023-12-28T04:01:00;22.92;;;16.17;;
40154;SDS011;25875;48.202;16.334;2023-12-28T04:03:26;23.48;;;17.88;;
40154;SDS011;25875;48.202;16.334;2023-12-28T04:05:53;23.70;;;17.05;;
40154;SDS011;25875;48.202;16.334;2023-12-28T04:08:21;26.17;;;18.33;;
40154;SDS011;25875;48.202;16.334;2023-12-28T04:10:47;25.48;;;19.35;;
40154;SDS011;25875;48.202;16.334;2023-12-28T04:13:14;23.40;;;17.10;;
40154;SDS011;25875;48.202;16.334;2023-12-28T04:15:41;29.42;;;17.85;;
40154;SDS011;25875;48.202;16.334;2023-12-28T04:18:08;27.27;;;18.80;;
40154;SDS011;25875;48.202;16.334;2023-12-28T04:20:34;23.98;;;17.70;;
40154;SDS011;25875;48.202;16.334;2023-12-28T04:23:01;23.92;;;17.38;;
40154;SDS011;25875;48.202;16.334;2023-12-28T04:25:29;22.95;;;17.20;;
40154;SDS011;25875;48.202;16.334;2023-12-28T04:27:56;25.58;;;16.83;;
40154;SDS011;25875;48.202;16.334;2023-12-28T04:30:22;27.58;;;18.27;;
40154;SDS011;25875;48.202;16.334;2023-12-28T04:32:49;27.00;;;19.17;;
40154;SDS011;25875;48.202;16.334;2023-12-28T04:35:15;24.52;;;17.50;;
40154;SDS011;25875;48.202;16.334;2023-12-28T04:37:41;24.20;;;18.20;;
40154;SDS011;25875;48.202;16.334;2023-12-28T04:40:08;22.75;;;17.67;;
40154;SDS011;25875;48.202;16.334;2023-12-28T04:42:37;23.50;;;17.60;;
40154;SDS011;25875;48.202;16.334;2023-12-28T04:45:04;23.75;;;17.73;;
40154;SDS011;25875;48.202;16.334;2023-12-28T04:47:31;21.60;;;17.02;;
40154;SDS011;25875;48.202;16.334;2023-12-28T04:49:58;23.50;;;17.55;;
40154;SDS011;25875;48.202;16.334;2023-12-28T04:52:24;24.75;;;17.83;;
40154;SDS011;25875;48.202;16.334;2023-12-28T04:54:51;23.75;;;18.20;;
40154;SDS011;25875;48.202;16.334;2023-12-28T04:57:17;24.27;;;17.58;;
40154;SDS011;25875;48.202;16.334;2023-12-28T04:59:45;19.75;;;15.55;;
40154;SDS011;25875;48.202;16.334;2023-12-28T05:02:12;22.73;;;16.48;;
40154;SDS011;25875;48.202;16.334;2023-12-28T05:04:39;21.60;;;16.77;;
40154;SDS011;25875;48.202;16.334;2023-12-28T05:07:05;22.20;;;15.90;;
40154;SDS011;25875;48.202;16.334;2023-12-28T05:09:32;24.23;;;17.08;;
40154;SDS011;25875;48.202;16.334;2023-12-28T05:11:59;22.90;;;17.70;;
40154;SDS011;25875;48.202;16.334;2023-12-28T05:14:25;22.10;;;16.80;;
40154;SDS011;25875;48.202;16.334;2023-12-28T05:16:54;24.20;;;17.65;;
40154;SDS011;25875;48.202;16.334;2023-12-28T05:19:20;22.73;;;17.15;;
40154;SDS011;25875;48.202;16.334;2023-12-28T05:21:47;22.83;;;16.30;;
40154;SDS011;25875;48.202;16.334;2023-12-28T05:24:14;25.38;;;17.65;;
40154;SDS011;25875;48.202;16.334;2023-12-28T05:26:40;21.98;;;15.75;;
40154;SDS011;25875;48.202;16.334;2023-12-28T05:29:07;27.42;;;17.60;;
40154;SDS011;25875;48.202;16.334;2023-12-28T05:31:33;27.85;;;19.10;;
40154;SDS011;25875;48.202;16.334;2023-12-28T05:34:01;23.58;;;17.02;;
40154;SDS011;25875;48.202;16.334;2023-12-28T05:36:29;25.73;;;16.63;;
40154;SDS011;25875;48.202;16.334;2023-12-28T05:38:55;27.38;;;19.77;;
40154;SDS011;25875;48.202;16.334;2023-12-28T05:41:22;25.80;;;17.80;;
40154;SDS011;25875;48.202;16.334;2023-12-28T05:43:49;25.77;;;20.05;;
40154;SDS011;25875;48.202;16.334;2023-12-28T05:46:15;26.95;;;19.55;;
40154;SDS011;25875;48.202;16.334;2023-12-28T05:48:42;29.33;;;20.52;;
40154;SDS011;25875;48.202;16.334;2023-12-28T05:51:10;26.65;;;20.67;;
40154;SDS011;25875;48.202;16.334;2023-12-28T05:53:36;25.45;;;18.88;;
40154;SDS011;25875;48.202;16.334;2023-12-28T05:56:03;24.88;;;17.77;;
40154;SDS011;25875;48.202;16.334;2023-12-28T05:58:30;24.15;;;17.58;;
40154;SDS011;25875;48.202;16.334;2023-12-28T06:00:57;22.92;;;16.40;;
40154;SDS011;25875;48.202;16.334;2023-12-28T06:03:24;23.42;;;16.38;;
40154;SDS011;25875;48.202;16.334;2023-12-28T06:05:53;22.27;;;16.27;;
40154;SDS011;25875;48.202;16.334;2023-12-28T06:08:21;24.17;;;16.83;;
40154;SDS011;25875;48.202;16.334;2023-12-28T06:10:48;24.02;;;17.30;;
40154;SDS011;25875;48.202;16.334;2023-12-28T06:13:15;23.63;;;16.63;;
40154;SDS011;25875;48.202;16.334;2023-12-28T06:15:42;21.58;;;15.82;;
40154;SDS011;25875;48.202;16.334;2023-12-28T06:18:09;26.08;;;17.52;;
40154;SDS011;25875;48.202;16.334;2023-12-28T06:20:36;24.65;;;18.63;;
40154;SDS011;25875;48.202;16.334;2023-12-28T06:23:02;26.40;;;17.77;;
40154;SDS011;25875;48.202;16.334;2023-12-28T06:25:31;25.10;;;18.13;;
40154;SDS011;25875;48.202;16.334;2023-12-28T06:27:57;28.25;;;19.90;;
40154;SDS011;25875;48.202;16.334;2023-12-28T06:30:24;30.17;;;19.50;;
40154;SDS011;25875;48.202;16.334;2023-12-28T06:32:51;26.15;;;18.42;;
40154;SDS011;25875;48.202;16.334;2023-12-28T06:35:17;24.90;;;17.77;;
40154;SDS011;25875;48.202;16.334;2023-12-28T06:37:44;29.35;;;18.35;;
40154;SDS011;25875;48.202;16.334;2023-12-28T06:40:11;26.55;;;18.27;;
40154;SDS011;25875;48.202;16.334;2023-12-28T06:42:39;24.88;;;18.65;;
40154;SDS011;25875;48.202;16.334;2023-12-28T06:45:08;25.30;;;17.38;;
40154;SDS011;25875;48.202;16.334;2023-12-28T06:47:35;29.80;;;19.42;;
40154;SDS011;25875;48.202;16.334;2023-12-28T06:50:02;29.73;;;20.48;;
40154;SDS011;25875;48.202;16.334;2023-12-28T06:52:29;26.25;;;18.73;;
40154;SDS011;25875;48.202;16.334;2023-12-28T06:54:56;28.13;;;19.98;;
40154;SDS011;25875;48.202;16.334;2023-12-28T06:57:23;26.70;;;17.33;;
40154;SDS011;25875;48.202;16.334;2023-12-28T06:59:51;26.13;;;17.73;;
40154;SDS011;25875;48.202;16.334;2023-12-28T07:02:19;24.35;;;18.83;;
40154;SDS011;25875;48.202;16.334;2023-12-28T07:04:46;27.60;;;17.05;;
40154;SDS011;25875;48.202;16.334;2023-12-28T07:07:13;27.20;;;17.65;;
40154;SDS011;25875;48.202;16.334;2023-12-28T07:09:39;27.83;;;19.23;;
40154;SDS011;25875;48.202;16.334;2023-12-28T07:12:06;26.85;;;19.20;;
40154;SDS011;25875;48.202;16.334;2023-12-28T07:14:33;29.83;;;18.40;;
40154;SDS011;25875;48.202;16.334;2023-12-28T07:17:02;34.00;;;20.48;;
40154;SDS011;25875;48.202;16.334;2023-12-28T07:19:29;31.00;;;18.88;;
40154;SDS011;25875;48.202;16.334;2023-12-28T07:21:56;27.20;;;18.92;;
40154;SDS011;25875;48.202;16.334;2023-12-28T07:24:23;25.75;;;17.45;;
40154;SDS011;25875;48.202;16.334;2023-12-28T07:26:49;26.98;;;17.60;;
40154;SDS011;25875;48.202;16.334;2023-12-28T07:29:16;27.13;;;18.70;;
40154;SDS011;25875;48.202;16.334;2023-12-28T07:31:44;26.38;;;17.52;;
40154;SDS011;25875;48.202;16.334;2023-12-28T07:34:12;30.30;;;17.52;;
40154;SDS011;25875;48.202;16.334;2023-12-28T07:36:39;26.40;;;18.25;;
40154;SDS011;25875;48.202;16.334;2023-12-28T07:39:08;24.42;;;16.08;;
40154;SDS011;25875;48.202;16.334;2023-12-28T07:41:35;28.17;;;17.88;;
40154;SDS011;25875;48.202;16.334;2023-12-28T07:44:02;28.30;;;19.35;;
40154;SDS011;25875;48.202;16.334;2023-12-28T07:46:28;27.42;;;18.20;;
40154;SDS011;25875;48.202;16.334;2023-12-28T07:48:55;26.33;;;18.38;;
40154;SDS011;25875;48.202;16.334;2023-12-28T07:51:23;23.88;;;16.65;;
40154;SDS011;25875;48.202;16.334;2023-12-28T07:53:50;25.90;;;17.85;;
40154;SDS011;25875;48.202;16.334;2023-12-28T07:56:16;27.73;;;18.38;;
40154;SDS011;25875;48.202;16.334;2023-12-28T07:58:43;25.00;;;17.27;;
40154;SDS011;25875;48.202;16.334;2023-12-28T08:01:10;25.92;;;18.42;;
40154;SDS011;25875;48.202;16.334;2023-12-28T08:03:37;28.42;;;18.13;;
40154;SDS011;25875;48.202;16.334;2023-12-28T08:06:03;27.88;;;18.23;;
40154;SDS011;25875;48.202;16.334;2023-12-28T08:08:32;29.65;;;19.50;;
40154;SDS011;25875;48.202;16.334;2023-12-28T08:10:59;30.75;;;17.90;;
40154;SDS011;25875;48.202;16.334;2023-12-28T08:13:25;24.90;;;18.08;;
40154;SDS011;25875;48.202;16.334;2023-12-28T08:15:52;27.88;;;17.20;;
40154;SDS011;25875;48.202;16.334;2023-12-28T08:18:19;27.85;;;19.02;;
40154;SDS011;25875;48.202;16.334;2023-12-28T08:20:45;24.42;;;16.88;;
40154;SDS011;25875;48.202;16.334;2023-12-28T08:23:12;30.58;;;19.38;;
40154;SDS011;25875;48.202;16.334;2023-12-28T08:25:40;31.38;;;18.90;;
40154;SDS011;25875;48.202;16.334;2023-12-28T08:28:07;28.83;;;18.00;;
40154;SDS011;25875;48.202;16.334;2023-12-28T08:30:33;33.22;;;20.27;;
40154;SDS011;25875;48.202;16.334;2023-12-28T08:33:00;29.33;;;19.70;;
40154;SDS011;25875;48.202;16.334;2023-12-28T08:35:27;33.10;;;19.52;;
40154;SDS011;25875;48.202;16.334;2023-12-28T08:37:53;30.17;;;18.83;;
40154;SDS011;25875;48.202;16.334;2023-12-28T08:40:20;27.70;;;18.58;;
40154;SDS011;25875;48.202;16.334;2023-12-28T08:42:48;33.63;;;20.75;;
40154;SDS011;25875;48.202;16.334;2023-12-28T08:45:14;28.52;;;18.42;;
40154;SDS011;25875;48.202;16.334;2023-12-28T08:47:41;29.10;;;19.70;;
40154;SDS011;25875;48.202;16.334;2023-12-28T08:50:08;29.52;;;18.38;;
40154;SDS011;25875;48.202;16.334;2023-12-28T08:52:35;31.90;;;18.55;;
40154;SDS011;25875;48.202;16.334;2023-12-28T08:55:02;27.63;;;18.55;;
40154;SDS011;25875;48.202;16.334;2023-12-28T08:57:31;26.27;;;17.70;;
40154;SDS011;25875;48.202;16.334;2023-12-28T08:59:59;28.25;;;17.15;;
40154;SDS011;25875;48.202;16.334;2023-12-28T09:02:28;27.45;;;16.45;;
40154;SDS011;25875;48.202;16.334;2023-12-28T09:04:54;27.30;;;16.95;;
40154;SDS011;25875;48.202;16.334;2023-12-28T09:07:21;25.52;;;17.00;;
40154;SDS011;25875;48.202;16.334;2023-12-28T09:09:48;28.33;;;16.58;;
40154;SDS011;25875;48.202;16.334;2023-12-28T09:12:14;28.33;;;17.23;;
40154;SDS011;25875;48.202;16.334;2023-12-28T09:14:41;23.73;;;16.02;;
40154;SDS011;25875;48.202;16.334;2023-12-28T09:17:09;24.35;;;15.63;;
40154;SDS011;25875;48.202;16.334;2023-12-28T09:19:35;25.67;;;16.52;;
40154;SDS011;25875;48.202;16.334;2023-12-28T09:22:03;26.75;;;16.15;;
40154;SDS011;25875;48.202;16.334;2023-12-28T09:24:30;26.73;;;17.98;;
40154;SDS011;25875;48.202;16.334;2023-12-28T09:26:57;26.52;;;18.42;;
40154;SDS011;25875;48.202;16.334;2023-12-28T09:29:23;31.80;;;18.92;;
40154;SDS011;25875;48.202;16.334;2023-12-28T09:31:50;29.42;;;18.10;;
40154;SDS011;25875;48.202;16.334;2023-12-28T09:34:18;28.27;;;16.98;;
40154;SDS011;25875;48.202;16.334;2023-12-28T09:36:44;26.92;;;17.20;;
40154;SDS011;25875;48.202;16.334;2023-12-28T09:39:11;25.40;;;16.88;;
40154;SDS011;25875;48.202;16.334;2023-12-28T09:41:39;25.35;;;16.52;;
40154;SDS011;25875;48.202;16.334;2023-12-28T09:44:11;23.17;;;15.55;;
40154;SDS011;25875;48.202;16.334;2023-12-28T09:46:40;26.58;;;17.23;;
40154;SDS011;25875;48.202;16.334;2023-12-28T09:49:08;30.65;;;17.60;;
40154;SDS011;25875;48.202;16.334;2023-12-28T09:51:36;25.10;;;15.07;;
40154;SDS011;25875;48.202;16.334;2023-12-28T09:54:03;23.48;;;16.35;;
40154;SDS011;25875;48.202;16.334;2023-12-28T09:56:30;26.35;;;17.65;;
40154;SDS011;25875;48.202;16.334;2023-12-28T09:58:58;23.30;;;15.18;;
40154;SDS011;25875;48.202;16.334;2023-12-28T10:01:25;22.38;;;15.40;;
40154;SDS011;25875;48.202;16.334;2023-12-28T10:03:52;24.35;;;16.33;;
40154;SDS011;25875;48.202;16.334;2023-12-28T10:06:19;24.38;;;15.93;;
40154;SDS011;25875;48.202;16.334;2023-12-28T10:08:48;24.23;;;14.77;;
40154;SDS011;25875;48.202;16.334;2023-12-28T10:11:16;23.35;;;16.38;;
40154;SDS011;25875;48.202;16.334;2023-12-28T10:13:43;24.65;;;15.70;;
40154;SDS011;25875;48.202;16.334;2023-12-28T10:16:10;24.10;;;16.40;;
40154;SDS011;25875;48.202;16.334;2023-12-28T10:18:39;23.58;;;16.20;;
40154;SDS011;25875;48.202;16.334;2023-12-28T10:21:07;25.60;;;16.80;;
40154;SDS011;25875;48.202;16.334;2023-12-28T10:23:34;23.25;;;17.13;;
40154;SDS011;25875;48.202;16.334;2023-12-28T10:26:03;24.92;;;17.17;;
40154;SDS011;25875;48.202;16.334;2023-12-28T10:28:31;25.45;;;16.27;;
40154;SDS011;25875;48.202;16.334;2023-12-28T10:30:58;26.27;;;16.40;;
40154;SDS011;25875;48.202;16.334;2023-12-28T10:33:25;23.77;;;15.65;;
40154;SDS011;25875;48.202;16.334;2023-12-28T10:35:51;24.52;;;16.20;;
40154;SDS011;25875;48.202;16.334;2023-12-28T10:38:19;25.17;;;16.20;;
40154;SDS011;25875;48.202;16.334;2023-12-28T10:40:46;23.05;;;15.20;;
40154;SDS011;25875;48.202;16.334;2023-12-28T10:43:16;22.70;;;15.13;;
40154;SDS011;25875;48.202;16.334;2023-12-28T10:45:46;21.30;;;15.27;;
40154;SDS011;25875;48.202;16.334;2023-12-28T10:48:13;22.73;;;14.88;;
40154;SDS011;25875;48.202;16.334;2023-12-28T10:50:40;22.60;;;14.82;;
40154;SDS011;25875;48.202;16.334;2023-12-28T10:53:16;26.27;;;16.55;;
40154;SDS011;25875;48.202;16.334;2023-12-28T10:56:00;24.38;;;16.10;;
40154;SDS011;25875;48.202;16.334;2023-12-28T10:58:40;27.50;;;15.98;;
40154;SDS011;25875;48.202;16.334;2023-12-28T11:01:13;22.42;;;16.02;;
40154;SDS011;25875;48.202;16.334;2023-12-28T11:03:46;25.77;;;16.73;;
40154;SDS011;25875;48.202;16.334;2023-12-28T11:06:18;25.38;;;16.77;;
40154;SDS011;25875;48.202;16.334;2023-12-28T11:08:45;23.52;;;15.60;;
40154;SDS011;25875;48.202;16.334;2023-12-28T11:11:16;26.30;;;16.90;;
40154;SDS011;25875;48.202;16.334;2023-12-28T11:13:46;22.20;;;15.77;;
40154;SDS011;25875;48.202;16.334;2023-12-28T11:16:17;24.35;;;16.20;;
40154;SDS011;25875;48.202;16.334;2023-12-28T11:18:45;26.42;;;17.38;;
40154;SDS011;25875;48.202;16.334;2023-12-28T11:21:13;21.88;;;14.93;;
40154;SDS011;25875;48.202;16.334;2023-12-28T11:23:40;24.33;;;15.55;;
40154;SDS011;25875;48.202;16.334;2023-12-28T11:26:15;22.88;;;15.05;;
40154;SDS011;25875;48.202;16.334;2023-12-28T11:28:42;22.48;;;15.40;;
40154;SDS011;25875;48.202;16.334;2023-12-28T11:31:10;26.25;;;15.82;;
40154;SDS011;25875;48.202;16.334;2023-12-28T11:33:43;26.08;;;17.13;;
40154;SDS011;25875;48.202;16.334;2023-12-28T11:36:10;21.42;;;15.02;;
40154;SDS011;25875;48.202;16.334;2023-12-28T11:38:37;24.33;;;14.98;;
40154;SDS011;25875;48.202;16.334;2023-12-28T11:41:06;21.80;;;14.90;;
40154;SDS011;25875;48.202;16.334;2023-12-28T11:43:34;25.83;;;16.45;;
40154;SDS011;25875;48.202;16.334;2023-12-28T11:46:02;21.80;;;14.77;;
40154;SDS011;25875;48.202;16.334;2023-12-28T11:48:32;22.70;;;16.23;;
40154;SDS011;25875;48.202;16.334;2023-12-28T11:50:59;22.05;;;15.07;;
40154;SDS011;25875;48.202;16.334;2023-12-28T11:53:26;21.00;;;13.77;;
40154;SDS011;25875;48.202;16.334;2023-12-28T11:55:59;21.80;;;13.95;;
40154;SDS011;25875;48.202;16.334;2023-12-28T11:58:27;20.02;;;14.05;;
40154;SDS011;25875;48.202;16.334;2023-12-28T12:00:54;21.52;;;14.05;;
40154;SDS011;25875;48.202;16.334;2023-12-28T12:03:20;21.70;;;13.88;;
40154;SDS011;25875;48.202;16.334;2023-12-28T12:05:49;20.95;;;14.73;;
40154;SDS011;25875;48.202;16.334;2023-12-28T12:08:16;21.50;;;14.93;;
40154;SDS011;25875;48.202;16.334;2023-12-28T12:10:42;22.88;;;14.98;;
40154;SDS011;25875;48.202;16.334;2023-12-28T12:13:09;21.98;;;13.35;;
40154;SDS011;25875;48.202;16.334;2023-12-28T12:15:36;19.83;;;12.73;;
40154;SDS011;25875;48.202;16.334;2023-12-28T12:18:03;19.00;;;12.93;;
40154;SDS011;25875;48.202;16.334;2023-12-28T12:20:31;20.70;;;15.38;;
40154;SDS011;25875;48.202;16.334;2023-12-28T12:22:59;24.25;;;14.77;;
40154;SDS011;25875;48.202;16.334;2023-12-28T12:25:28;22.05;;;14.48;;
40154;SDS011;25875;48.202;16.334;2023-12-28T12:27:55;20.77;;;14.02;;
40154;SDS011;25875;48.202;16.334;2023-12-28T12:30:22;22.02;;;15.32;;
40154;SDS011;25875;48.202;16.334;2023-12-28T12:32:48;20.65;;;14.32;;
40154;SDS011;25875;48.202;16.334;2023-12-28T12:35:15;21.88;;;15.23;;
40154;SDS011;25875;48.202;16.334;2023-12-28T12:37:46;21.13;;;13.85;;
40154;SDS011;25875;48.202;16.334;2023-12-28T12:40:16;20.92;;;14.23;;
40154;SDS011;25875;48.202;16.334;2023-12-28T12:42:51;21.30;;;14.77;;
40154;SDS011;25875;48.202;16.334;2023-12-28T12:45:18;22.88;;;14.88;;
40154;SDS011;25875;48.202;16.334;2023-12-28T12:47:46;19.38;;;13.95;;
40154;SDS011;25875;48.202;16.334;2023-12-28T12:50:12;23.02;;;14.38;;
40154;SDS011;25875;48.202;16.334;2023-12-28T12:52:39;19.08;;;14.45;;
40154;SDS011;25875;48.202;16.334;2023-12-28T12:55:06;19.50;;;14.10;;
40154;SDS011;25875;48.202;16.334;2023-12-28T12:57:38;20.67;;;15.55;;
40154;SDS011;25875;48.202;16.334;2023-12-28T13:00:05;21.02;;;13.73;;
40154;SDS011;25875;48.202;16.334;2023-12-28T13:02:35;21.23;;;14.20;;
40154;SDS011;25875;48.202;16.334;2023-12-28T13:05:03;20.33;;;13.80;;
40154;SDS011;25875;48.202;16.334;2023-12-28T13:07:30;18.58;;;12.65;;
40154;SDS011;25875;48.202;16.334;2023-12-28T13:09:57;19.52;;;14.38;;
40154;SDS011;25875;48.202;16.334;2023-12-28T13:12:24;20.13;;;13.68;;
40154;SDS011;25875;48.202;16.334;2023-12-28T13:14:52;18.02;;;13.40;;
40154;SDS011;25875;48.202;16.334;2023-12-28T13:17:19;19.10;;;12.65;;
40154;SDS011;25875;48.202;16.334;2023-12-28T13:19:45;17.05;;;13.73;;
40154;SDS011;25875;48.202;16.334;2023-12-28T13:22:12;17.40;;;11.88;;
40154;SDS011;25875;48.202;16.334;2023-12-28T13:24:39;17.52;;;12.85;;
40154;SDS011;25875;48.202;16.334;2023-12-28T13:27:06;19.13;;;13.10;;
40154;SDS011;25875;48.202;16.334;2023-12-28T13:29:32;18.65;;;12.95;;
40154;SDS011;25875;48.202;16.334;2023-12-28T13:32:00;16.40;;;12.68;;
40154;SDS011;25875;48.202;16.334;2023-12-28T13:34:27;18.63;;;13.40;;
40154;SDS011;25875;48.202;16.334;2023-12-28T13:36:54;21.15;;;13.98;;
40154;SDS011;25875;48.202;16.334;2023-12-28T13:39:20;17.60;;;12.25;;
40154;SDS011;25875;48.202;16.334;2023-12-28T13:41:47;17.65;;;13.32;;
40154;SDS011;25875;48.202;16.334;2023-12-28T13:44:13;17.10;;;12.45;;
40154;SDS011;25875;48.202;16.334;2023-12-28T13:46:40;19.13;;;13.20;;
40154;SDS011;25875;48.202;16.334;2023-12-28T13:49:08;17.15;;;12.82;;
40154;SDS011;25875;48.202;16.334;2023-12-28T13:51:35;20.70;;;14.57;;
40154;SDS011;25875;48.202;16.334;2023-12-28T13:54:01;18.38;;;13.32;;
40154;SDS011;25875;48.202;16.334;2023-12-28T13:56:28;17.25;;;12.65;;
40154;SDS011;25875;48.202;16.334;2023-12-28T13:58:55;19.75;;;12.68;;
40154;SDS011;25875;48.202;16.334;2023-12-28T14:01:22;17.52;;;13.07;;
40154;SDS011;25875;48.202;16.334;2023-12-28T14:03:48;20.02;;;14.60;;
40154;SDS011;25875;48.202;16.334;2023-12-28T14:06:18;23.88;;;14.65;;
40154;SDS011;25875;48.202;16.334;2023-12-28T14:08:45;18.48;;;13.38;;
40154;SDS011;25875;48.202;16.334;2023-12-28T14:11:11;19.98;;;13.55;;
40154;SDS011;25875;48.202;16.334;2023-12-28T14:13:38;20.58;;;14.00;;